Time;durP1;ratioP1;P1;durP2;ratioP2;P2;SDS_P1;SDS_P2;PMS_P1;PMS_P2;Temp;Humidity;BMP_temperature;BMP_pressure;BME280_temperature;BME280_humidity;BME280_pressure;Samples;Min_cycle;Max_cycle;Signal;HPM_P1;HPM_P2
2021/01/23 00:02:21;;;;;;;19.92;4.90;;;12.10;99.90;;;;;;5092327;28;20047;-75
2021/01/23 00:04:47;;;;;;;23.60;4.40;;;12.20;99.90;;;;;;5092308;28;20028;-73
2021/01/23 00:07:12;;;;;;;19.00;4.15;;;12.20;99.90;;;;;;5092701;28;20077;-74
2021/01/23 00:09:38;;;;;;;25.58;5.25;;;12.30;99.90;;;;;;5092528;28;20096;-75
2021/01/23 00:12:05;;;;;;;23.73;4.43;;;12.30;99.90;;;;;;5092237;28;20027;-74
2021/01/23 00:14:30;;;;;;;25.05;4.10;;;12.30;99.90;;;;;;5091810;28;20051;-74
2021/01/23 00:16:56;;;;;;;17.75;5.00;;;12.30;99.90;;;;;;5090598;28;20384;-74
2021/01/23 00:19:22;;;;;;;17.48;3.60;;;12.40;99.90;;;;;;5090276;28;20028;-75
2021/01/23 00:21:47;;;;;;;18.52;3.33;;;12.40;99.90;;;;;;5090290;28;20045;-75
2021/01/23 00:24:13;;;;;;;21.48;4.85;;;12.40;99.90;;;;;;5090313;28;20434;-74
2021/01/23 00:26:43;;;;;;;13.88;3.28;;;12.40;99.90;;;;;;5090974;28;20062;-74
2021/01/23 00:29:10;;;;;;;20.73;3.72;;;12.50;99.90;;;;;;5090955;28;20024;-74
2021/01/23 00:31:35;;;;;;;16.00;2.95;;;12.50;99.90;;;;;;5091091;28;20527;-74
2021/01/23 00:34:01;;;;;;;29.05;3.95;;;12.50;99.90;;;;;;5091220;28;20119;-74
2021/01/23 00:36:27;;;;;;;28.50;4.25;;;12.60;99.90;;;;;;5092297;28;20016;-74
2021/01/23 00:38:54;;;;;;;15.75;3.03;;;12.50;99.90;;;;;;5092032;28;20032;-73
2021/01/23 00:41:20;;;;;;;12.88;2.58;;;12.50;99.90;;;;;;5091949;28;20068;-74
2021/01/23 00:43:45;;;;;;;16.77;2.47;;;12.60;99.90;;;;;;5091626;28;20027;-74
2021/01/23 00:46:11;;;;;;;12.75;2.80;;;12.60;99.90;;;;;;5092050;28;20062;-74
2021/01/23 00:48:37;;;;;;;14.25;3.00;;;12.60;99.90;;;;;;5090910;28;20027;-74
2021/01/23 00:51:03;;;;;;;13.23;2.75;;;12.60;99.90;;;;;;5091949;28;20016;-74
2021/01/23 00:53:28;;;;;;;12.80;3.50;;;12.60;99.90;;;;;;5092063;28;20062;-73
2021/01/23 00:55:54;;;;;;;15.98;2.35;;;12.60;99.90;;;;;;5090462;28;20042;-74
2021/01/23 00:58:19;;;;;;;8.65;2.33;;;12.50;99.90;;;;;;5090610;28;20017;-73
2021/01/23 01:00:45;;;;;;;14.35;2.85;;;12.50;99.90;;;;;;5091307;28;20111;-73
2021/01/23 01:03:11;;;;;;;13.07;2.30;;;12.50;99.90;;;;;;5092646;28;20040;-74
2021/01/23 01:05:36;;;;;;;12.55;3.08;;;12.40;99.90;;;;;;5095925;28;20032;-73
2021/01/23 01:08:02;;;;;;;16.25;2.88;;;12.40;99.90;;;;;;5094729;28;20066;-74
2021/01/23 01:10:28;;;;;;;13.98;2.45;;;12.40;99.90;;;;;;5092081;28;20032;-74
2021/01/23 01:12:54;;;;;;;11.80;2.85;;;12.40;99.90;;;;;;5094432;28;20025;-74
2021/01/23 01:15:20;;;;;;;17.17;2.60;;;12.40;99.90;;;;;;5095486;28;20031;-73
2021/01/23 01:17:45;;;;;;;9.38;2.97;;;12.40;99.90;;;;;;5096026;28;20016;-74
2021/01/23 01:20:11;;;;;;;12.23;3.50;;;12.40;99.90;;;;;;5094984;28;20492;-74
2021/01/23 01:22:38;;;;;;;18.00;3.33;;;12.40;99.90;;;;;;5095414;28;20021;-73
2021/01/23 01:25:05;;;;;;;10.73;2.75;;;12.50;99.90;;;;;;5095041;28;20357;-75
2021/01/23 01:27:30;;;;;;;12.95;2.75;;;12.50;99.90;;;;;;5094266;28;20024;-75
2021/01/23 01:29:56;;;;;;;8.90;2.17;;;12.50;99.90;;;;;;5095238;28;20076;-74
2021/01/23 01:32:22;;;;;;;8.48;2.53;;;12.50;99.90;;;;;;5095525;28;20103;-74
2021/01/23 01:34:48;;;;;;;12.45;2.53;;;12.50;99.90;;;;;;5095641;28;20036;-75
2021/01/23 01:37:13;;;;;;;12.68;2.20;;;12.50;99.90;;;;;;5094846;28;20076;-75
2021/01/23 01:39:39;;;;;;;11.85;2.88;;;12.50;99.90;;;;;;5095304;28;20028;-74
2021/01/23 01:42:06;;;;;;;12.40;2.58;;;12.50;99.90;;;;;;5094817;28;20131;-75
2021/01/23 01:44:32;;;;;;;17.20;2.97;;;12.50;99.90;;;;;;5094929;28;20027;-74
2021/01/23 01:46:59;;;;;;;14.00;2.45;;;12.50;99.90;;;;;;5095065;28;20369;-74
2021/01/23 01:49:25;;;;;;;10.30;2.63;;;12.50;99.90;;;;;;5094567;28;20023;-74
2021/01/23 01:51:55;;;;;;;14.13;2.15;;;12.50;99.90;;;;;;5082566;28;20047;-74
2021/01/23 01:54:25;;;;;;;13.38;2.30;;;12.40;99.90;;;;;;5093713;28;20115;-74
2021/01/23 01:56:53;;;;;;;9.40;2.20;;;12.50;99.90;;;;;;5085081;28;20082;-74
2021/01/23 01:59:19;;;;;;;15.73;2.72;;;12.50;99.90;;;;;;5093443;28;20016;-74
2021/01/23 02:01:45;;;;;;;16.13;3.20;;;12.40;99.90;;;;;;5094576;28;20085;-74
2021/01/23 02:04:30;;;;;;;9.43;2.50;;;12.40;99.90;;;;;;5094816;28;20036;-75
2021/01/23 02:07:09;;;;;;;12.18;3.58;;;12.40;99.90;;;;;;5085352;28;20018;-74
2021/01/23 02:09:54;;;;;;;21.52;3.20;;;12.30;99.90;;;;;;5082852;28;20375;-73
2021/01/23 02:12:27;;;;;;;25.67;3.25;;;12.30;99.90;;;;;;5094480;28;20085;-74
2021/01/23 02:15:04;;;;;;;13.38;2.78;;;12.30;99.90;;;;;;5089766;28;20036;-73
2021/01/23 02:17:45;;;;;;;15.75;3.20;;;12.30;99.90;;;;;;5093952;28;20028;-74
2021/01/23 02:20:19;;;;;;;14.55;3.47;;;12.20;99.90;;;;;;5081430;28;20077;-74
2021/01/23 02:23:13;;;;;;;13.35;2.38;;;12.20;99.90;;;;;;5092271;28;20020;-75
2021/01/23 02:25:59;;;;;;;24.60;3.38;;;12.20;99.90;;;;;;5094146;28;20479;-74
2021/01/23 02:28:46;;;;;;;20.23;3.50;;;12.10;99.90;;;;;;5093837;28;20017;-74
2021/01/23 02:31:14;;;;;;;9.95;2.63;;;12.10;99.90;;;;;;5093900;28;20022;-74
2021/01/23 02:33:42;;;;;;;28.02;2.90;;;12.10;99.90;;;;;;5093017;28;20066;-74
2021/01/23 02:36:10;;;;;;;17.88;2.40;;;12.20;99.90;;;;;;5093846;28;20088;-74
2021/01/23 02:38:38;;;;;;;18.05;3.60;;;12.10;99.90;;;;;;5093461;28;20412;-74
2021/01/23 02:41:04;;;;;;;15.75;3.22;;;12.20;99.90;;;;;;5093731;28;20031;-75
2021/01/23 02:43:31;;;;;;;14.93;4.07;;;12.10;99.90;;;;;;5093558;28;20024;-74
2021/01/23 02:45:57;;;;;;;28.85;4.22;;;12.20;99.90;;;;;;5093699;28;20061;-74
2021/01/23 02:48:23;;;;;;;13.73;3.15;;;12.10;99.90;;;;;;5091781;28;20030;-74
2021/01/23 02:50:49;;;;;;;19.38;2.38;;;12.20;99.90;;;;;;5091766;28;20039;-73
2021/01/23 02:53:19;;;;;;;27.70;3.85;;;12.20;99.90;;;;;;5093247;28;20032;-74
2021/01/23 02:55:47;;;;;;;21.65;3.90;;;12.20;99.90;;;;;;5093718;28;20016;-73
2021/01/23 02:58:20;;;;;;;22.10;2.97;;;12.20;99.90;;;;;;5093362;28;20111;-74
2021/01/23 03:00:48;;;;;;;26.20;3.15;;;12.20;99.90;;;;;;5092640;28;20016;-74
2021/01/23 03:03:17;;;;;;;35.33;6.10;;;12.20;99.90;;;;;;5093056;28;20495;-74
2021/01/23 03:05:43;;;;;;;35.55;3.72;;;12.20;99.90;;;;;;5093174;28;20024;-74
2021/01/23 03:08:15;;;;;;;19.23;3.75;;;12.20;99.90;;;;;;5093172;28;20472;-74
2021/01/23 03:10:45;;;;;;;17.45;2.72;;;12.10;99.90;;;;;;5093472;28;20064;-74
2021/01/23 03:13:12;;;;;;;19.17;3.80;;;12.20;99.90;;;;;;5092830;28;20032;-74
2021/01/23 03:15:39;;;;;;;18.52;2.88;;;12.10;99.90;;;;;;5093215;28;20024;-74
2021/01/23 03:18:06;;;;;;;29.17;5.07;;;12.10;99.90;;;;;;5093367;28;20069;-73
2021/01/23 03:20:32;;;;;;;21.65;5.10;;;12.20;99.90;;;;;;5093075;28;20033;-74
2021/01/23 03:22:58;;;;;;;28.88;3.42;;;12.20;99.90;;;;;;5093093;28;20024;-74
2021/01/23 03:25:27;;;;;;;35.15;5.30;;;12.20;99.90;;;;;;5093258;28;20016;-74
2021/01/23 03:27:54;;;;;;;24.05;4.50;;;12.20;99.90;;;;;;5093120;28;20027;-74
2021/01/23 03:30:21;;;;;;;34.25;4.47;;;12.10;99.90;;;;;;5092938;28;20020;-73
2021/01/23 03:32:48;;;;;;;41.97;5.32;;;12.20;99.90;;;;;;5092834;28;20042;-73
2021/01/23 03:35:15;;;;;;;52.70;6.07;;;12.20;99.90;;;;;;5093272;28;20114;-74
2021/01/23 03:37:41;;;;;;;27.70;4.05;;;12.10;99.90;;;;;;5092028;28;20486;-74
2021/01/23 03:40:07;;;;;;;31.67;4.72;;;12.20;99.90;;;;;;5092340;28;20060;-74
2021/01/23 03:42:34;;;;;;;27.15;4.35;;;12.20;99.90;;;;;;5092739;28;20016;-74
2021/01/23 03:45:00;;;;;;;42.40;6.13;;;12.20;99.90;;;;;;5092222;28;20084;-73
2021/01/23 03:47:26;;;;;;;43.35;5.82;;;12.20;99.90;;;;;;5093302;28;20118;-74
2021/01/23 03:49:52;;;;;;;29.42;5.15;;;12.20;99.90;;;;;;5090317;28;20059;-74
2021/01/23 03:52:18;;;;;;;40.08;5.25;;;12.20;99.90;;;;;;5078803;28;20507;-75
2021/01/23 03:54:43;;;;;;;37.95;6.45;;;12.10;99.90;;;;;;5092352;28;20036;-74
2021/01/23 03:57:09;;;;;;;40.28;6.13;;;12.10;99.90;;;;;;5092307;28;20091;-75
2021/01/23 03:59:36;;;;;;;44.67;5.13;;;12.10;99.90;;;;;;5092701;28;20044;-74
2021/01/23 04:02:03;;;;;;;41.10;5.40;;;12.10;99.90;;;;;;5092256;28;20055;-75
2021/01/23 04:04:28;;;;;;;27.85;5.03;;;12.10;99.90;;;;;;5092738;28;20380;-73
2021/01/23 04:06:55;;;;;;;35.38;5.97;;;12.10;99.90;;;;;;5092081;28;20023;-74
2021/01/23 04:09:21;;;;;;;34.60;5.70;;;12.10;99.90;;;;;;5085074;28;20095;-74
2021/01/23 04:11:47;;;;;;;34.08;5.00;;;12.10;99.90;;;;;;5084866;28;20163;-74
2021/01/23 04:14:12;;;;;;;37.30;6.80;;;12.10;99.90;;;;;;5091745;28;20078;-75
2021/01/23 04:16:38;;;;;;;36.97;5.85;;;12.20;99.90;;;;;;5092090;28;20101;-74
2021/01/23 04:19:04;;;;;;;26.60;5.10;;;12.20;99.90;;;;;;5090050;28;20032;-74
2021/01/23 04:21:31;;;;;;;36.95;5.97;;;12.20;99.90;;;;;;5091929;28;20065;-74
2021/01/23 04:23:57;;;;;;;34.15;5.15;;;12.20;99.90;;;;;;5092111;28;20032;-75
2021/01/23 04:26:23;;;;;;;33.90;5.78;;;12.20;99.90;;;;;;5091851;28;20020;-74
2021/01/23 04:28:49;;;;;;;42.45;5.88;;;12.30;99.90;;;;;;5091939;28;20106;-74
2021/01/23 04:31:14;;;;;;;32.50;5.28;;;12.20;99.90;;;;;;5091815;28;20035;-73
2021/01/23 04:33:40;;;;;;;38.17;5.78;;;12.20;99.90;;;;;;5092191;28;20476;-74
2021/01/23 04:36:06;;;;;;;32.13;6.35;;;12.20;99.90;;;;;;5091704;28;20016;-72
2021/01/23 04:38:32;;;;;;;43.15;6.50;;;12.20;99.90;;;;;;5090476;28;20020;-74
2021/01/23 04:40:59;;;;;;;43.00;5.72;;;12.20;99.90;;;;;;5091182;28;20531;-73
2021/01/23 04:43:25;;;;;;;37.90;4.88;;;12.30;99.90;;;;;;5091504;28;20031;-73
2021/01/23 04:45:52;;;;;;;40.92;5.10;;;12.30;99.90;;;;;;5090741;28;20119;-74
2021/01/23 04:48:18;;;;;;;35.60;5.28;;;12.30;99.90;;;;;;5090517;28;20035;-74
2021/01/23 04:50:45;;;;;;;36.97;5.10;;;12.30;99.90;;;;;;5091934;28;20035;-73
2021/01/23 04:53:15;;;;;;;34.38;5.03;;;12.30;99.90;;;;;;5091525;28;20116;-73
2021/01/23 04:55:43;;;;;;;32.90;5.28;;;12.40;99.90;;;;;;5091208;28;20024;-74
2021/01/23 04:58:09;;;;;;;38.95;5.88;;;12.40;99.90;;;;;;5091335;28;20016;-74
2021/01/23 05:00:34;;;;;;;47.08;5.57;;;12.40;99.90;;;;;;5090158;28;20028;-74
2021/01/23 05:03:02;;;;;;;42.55;6.28;;;12.40;99.90;;;;;;5091610;28;20048;-74
2021/01/23 05:05:31;;;;;;;48.60;6.38;;;12.40;99.90;;;;;;5076134;28;20385;-73
2021/01/23 05:08:11;;;;;;;28.35;4.68;;;12.40;99.90;;;;;;5091306;28;20055;-73
2021/01/23 05:10:38;;;;;;;22.73;3.85;;;12.40;99.90;;;;;;5090953;28;20082;-74
2021/01/23 05:13:17;;;;;;;38.10;5.72;;;12.30;99.90;;;;;;5091667;28;20036;-74
2021/01/23 05:15:44;;;;;;;35.42;6.70;;;12.40;99.90;;;;;;5091229;28;20035;-74
2021/01/23 05:18:12;;;;;;;35.40;5.20;;;12.30;99.90;;;;;;5091237;28;20052;-74
2021/01/23 05:20:46;;;;;;;26.15;4.85;;;12.30;99.90;;;;;;5090869;28;20111;-74
2021/01/23 05:23:19;;;;;;;29.30;5.30;;;12.30;99.90;;;;;;5091038;28;20069;-73
2021/01/23 05:25:48;;;;;;;32.22;4.05;;;12.30;99.90;;;;;;5091166;28;20024;-73
2021/01/23 05:28:31;;;;;;;22.90;3.92;;;12.30;99.90;;;;;;5090768;28;20012;-74
2021/01/23 05:30:58;;;;;;;39.88;5.35;;;12.30;99.90;;;;;;5090305;28;20020;-73
2021/01/23 05:33:29;;;;;;;26.85;4.20;;;12.30;99.90;;;;;;5071414;28;20031;-73
2021/01/23 05:35:57;;;;;;;29.92;4.18;;;12.30;99.90;;;;;;5086642;28;20070;-73
2021/01/23 05:38:25;;;;;;;24.40;3.95;;;12.30;99.90;;;;;;5090997;28;20729;-74
2021/01/23 05:40:54;;;;;;;22.35;3.47;;;12.30;99.90;;;;;;5090980;28;20036;-74
2021/01/23 05:43:36;;;;;;;33.17;5.47;;;12.30;99.90;;;;;;5090997;28;20081;-73
2021/01/23 05:46:04;;;;;;;29.70;3.85;;;12.40;99.90;;;;;;5081592;28;20115;-74
2021/01/23 05:48:30;;;;;;;33.42;4.03;;;12.30;99.90;;;;;;5091418;28;20027;-73
2021/01/23 05:50:56;;;;;;;27.33;4.70;;;12.40;99.90;;;;;;5093784;28;20036;-73
2021/01/23 05:53:22;;;;;;;24.40;3.78;;;12.40;99.90;;;;;;5094218;28;20020;-75
2021/01/23 05:55:47;;;;;;;33.35;4.65;;;12.30;99.90;;;;;;5094767;28;20028;-74
2021/01/23 05:58:13;;;;;;;23.33;4.05;;;12.30;99.90;;;;;;5083771;28;20373;-73
2021/01/23 06:00:40;;;;;;;28.05;3.70;;;12.30;99.90;;;;;;5093207;28;20031;-75
2021/01/23 06:03:06;;;;;;;22.35;3.40;;;12.20;99.90;;;;;;5094389;28;20105;-74
2021/01/23 06:05:32;;;;;;;35.25;4.97;;;12.20;99.90;;;;;;5094466;28;20039;-73
2021/01/23 06:07:58;;;;;;;23.95;3.85;;;12.20;99.90;;;;;;5094917;28;20020;-74
2021/01/23 06:10:24;;;;;;;21.20;3.30;;;12.10;99.90;;;;;;5094246;28;20451;-74
2021/01/23 06:12:51;;;;;;;32.33;3.97;;;12.10;99.90;;;;;;5087884;28;20032;-74
2021/01/23 06:15:31;;;;;;;19.00;3.08;;;12.10;99.90;;;;;;5094481;28;20285;-74
2021/01/23 06:18:20;;;;;;;31.27;5.45;;;12.00;99.90;;;;;;5090272;28;20016;-73
2021/01/23 06:20:49;;;;;;;23.02;3.13;;;12.00;99.90;;;;;;5090790;28;20045;-74
2021/01/23 06:23:16;;;;;;;24.10;3.15;;;12.00;99.90;;;;;;5094222;28;20020;-74
2021/01/23 06:25:51;;;;;;;24.38;3.50;;;11.90;99.90;;;;;;5094045;28;20023;-73
2021/01/23 06:28:26;;;;;;;26.10;4.57;;;12.00;99.90;;;;;;5092608;28;20107;-73
2021/01/23 06:30:52;;;;;;;33.85;4.00;;;12.00;99.90;;;;;;5093842;28;20074;-75
2021/01/23 06:33:24;;;;;;;27.75;3.38;;;11.90;99.90;;;;;;5091807;28;20505;-74
2021/01/23 06:36:01;;;;;;;23.42;3.40;;;11.90;99.90;;;;;;5083971;28;20155;-73
2021/01/23 06:38:28;;;;;;;30.80;4.10;;;12.00;99.90;;;;;;5093600;28;20036;-73
2021/01/23 06:40:54;;;;;;;19.90;3.35;;;11.90;99.90;;;;;;5093623;28;20059;-74
2021/01/23 06:43:19;;;;;;;36.50;3.55;;;11.90;99.90;;;;;;5093498;28;20508;-75
2021/01/23 06:45:45;;;;;;;30.10;4.72;;;12.00;99.90;;;;;;5092707;28;20024;-74
2021/01/23 06:48:11;;;;;;;19.15;3.67;;;12.00;99.90;;;;;;5093750;28;20020;-74
2021/01/23 06:50:42;;;;;;;25.42;3.90;;;12.00;99.90;;;;;;5094139;28;20154;-75
2021/01/23 06:53:28;;;;;;;25.50;3.70;;;12.10;99.90;;;;;;5093213;28;20438;-74
2021/01/23 06:55:57;;;;;;;19.35;3.53;;;12.10;99.90;;;;;;5084704;28;20107;-74
2021/01/23 06:58:23;;;;;;;23.38;3.05;;;12.10;99.90;;;;;;5093664;28;20031;-74
2021/01/23 07:00:57;;;;;;;20.27;3.83;;;12.20;99.90;;;;;;5092639;28;20013;-74
2021/01/23 07:03:26;;;;;;;25.27;3.53;;;12.20;99.90;;;;;;5092891;28;20040;-75
2021/01/23 07:05:53;;;;;;;28.02;3.92;;;12.20;99.90;;;;;;5093238;28;20023;-74
2021/01/23 07:08:31;;;;;;;22.75;3.10;;;12.20;99.90;;;;;;5093773;28;20026;-74
2021/01/23 07:11:14;;;;;;;24.65;3.20;;;12.20;99.90;;;;;;5092009;28;20107;-73
2021/01/23 07:14:00;;;;;;;26.88;3.45;;;12.30;99.90;;;;;;5092834;28;20044;-74
2021/01/23 07:16:27;;;;;;;30.23;3.92;;;12.30;99.90;;;;;;5088394;28;20028;-75
2021/01/23 07:18:58;;;;;;;15.00;3.92;;;12.40;99.90;;;;;;5092492;28;20067;-73
2021/01/23 07:21:24;;;;;;;16.75;4.28;;;12.30;99.90;;;;;;5091335;28;20027;-74
2021/01/23 07:23:53;;;;;;;22.85;3.25;;;12.40;99.90;;;;;;5092921;28;20052;-74
2021/01/23 07:26:19;;;;;;;15.32;2.67;;;12.40;99.90;;;;;;5093057;28;20480;-74
2021/01/23 07:28:57;;;;;;;16.42;3.08;;;12.30;99.90;;;;;;5093110;28;20421;-74
2021/01/23 07:31:29;;;;;;;14.55;2.63;;;12.20;99.90;;;;;;5091676;28;20024;-73
2021/01/23 07:33:59;;;;;;;15.45;3.53;;;12.10;99.90;;;;;;5085380;28;20123;-74
2021/01/23 07:36:40;;;;;;;20.15;3.35;;;12.00;99.90;;;;;;5092786;28;20747;-74
2021/01/23 07:39:12;;;;;;;18.48;3.00;;;12.00;99.90;;;;;;5092314;28;20468;-74
2021/01/23 07:41:47;;;;;;;14.00;3.42;;;11.90;99.90;;;;;;5092778;28;20476;-75
2021/01/23 07:44:14;;;;;;;20.75;3.35;;;11.90;99.90;;;;;;5093034;28;20025;-74
2021/01/23 07:46:42;;;;;;;18.45;4.55;;;11.90;99.90;;;;;;5092725;28;20027;-75
2021/01/23 07:49:18;;;;;;;17.83;3.60;;;11.90;99.90;;;;;;5092802;28;20031;-75
2021/01/23 07:51:44;;;;;;;30.15;4.50;;;11.90;99.90;;;;;;5092346;28;20468;-75
2021/01/23 07:54:14;;;;;;;23.90;4.35;;;11.90;99.90;;;;;;5092326;28;20047;-74
2021/01/23 07:56:54;;;;;;;17.58;3.30;;;11.90;99.90;;;;;;5091963;28;20035;-74
2021/01/23 07:59:39;;;;;;;20.05;4.35;;;11.90;99.90;;;;;;5102345;28;20024;-75
2021/01/23 08:02:04;;;;;;;26.17;3.78;;;11.80;99.90;;;;;;5086753;28;20043;-74
2021/01/23 08:04:31;;;;;;;20.52;3.60;;;11.80;99.90;;;;;;5090703;28;20028;-75
2021/01/23 08:07:26;;;;;;;22.83;4.57;;;11.80;99.90;;;;;;5091946;28;20021;-73
2021/01/23 08:10:08;;;;;;;22.63;4.03;;;11.80;99.90;;;;;;5092540;28;20024;-74
2021/01/23 08:12:57;;;;;;;18.10;3.75;;;11.80;99.90;;;;;;5092112;28;20038;-74
2021/01/23 08:15:27;;;;;;;18.95;3.83;;;11.70;99.90;;;;;;5089207;28;20089;-74
2021/01/23 08:17:54;;;;;;;14.38;3.13;;;11.80;99.90;;;;;;5082393;28;20028;-74
2021/01/23 08:20:37;;;;;;;22.25;3.20;;;11.80;99.90;;;;;;5092142;28;20020;-73
2021/01/23 08:23:09;;;;;;;19.95;3.05;;;11.70;99.90;;;;;;5092264;28;20017;-73
2021/01/23 08:25:42;;;;;;;28.38;4.45;;;11.60;99.90;;;;;;5092063;28;20503;-73
2021/01/23 08:28:08;;;;;;;28.38;3.30;;;11.50;99.90;;;;;;5091779;28;20024;-74
2021/01/23 08:30:34;;;;;;;23.27;3.13;;;11.40;99.90;;;;;;5091969;28;20031;-74
2021/01/23 08:33:05;;;;;;;23.25;4.07;;;11.20;99.90;;;;;;5090928;28;20031;-74
2021/01/23 08:35:33;;;;;;;31.65;4.35;;;11.10;99.90;;;;;;5092503;28;20035;-74
2021/01/23 08:37:59;;;;;;;22.67;4.13;;;11.10;99.90;;;;;;5091652;28;20039;-74
2021/01/23 08:40:24;;;;;;;34.08;4.63;;;11.10;99.90;;;;;;5092187;28;20582;-74
2021/01/23 08:42:51;;;;;;;24.50;4.00;;;11.10;99.90;;;;;;5091807;28;20024;-73
2021/01/23 08:45:19;;;;;;;14.80;3.42;;;11.20;99.90;;;;;;5089825;28;20472;-73
2021/01/23 08:47:45;;;;;;;26.50;4.00;;;11.20;99.90;;;;;;5092020;28;20035;-74
2021/01/23 08:50:11;;;;;;;21.10;3.60;;;11.20;99.90;;;;;;5091964;28;20121;-73
2021/01/23 08:52:37;;;;;;;26.25;4.15;;;11.20;99.90;;;;;;5091836;28;20053;-74
2021/01/23 08:55:07;;;;;;;23.90;3.42;;;11.20;99.90;;;;;;5091542;28;20028;-73
2021/01/23 08:57:33;;;;;;;29.38;4.70;;;11.20;99.90;;;;;;5091549;28;20028;-74
2021/01/23 08:59:59;;;;;;;30.17;3.45;;;11.20;99.90;;;;;;5092051;28;20028;-75
2021/01/23 09:02:25;;;;;;;28.75;5.05;;;11.20;99.90;;;;;;5090205;28;20040;-74
2021/01/23 09:04:51;;;;;;;19.63;4.90;;;11.30;99.90;;;;;;5090869;28;20024;-74
2021/01/23 09:07:17;;;;;;;15.25;5.47;;;11.30;99.90;;;;;;5091859;28;20032;-74
2021/01/23 09:09:43;;;;;;;20.88;4.20;;;11.40;99.90;;;;;;5091345;28;20028;-74
2021/01/23 09:12:09;;;;;;;29.35;4.50;;;11.40;99.90;;;;;;5090946;28;20081;-73
2021/01/23 09:14:35;;;;;;;28.83;6.00;;;11.50;99.90;;;;;;5082647;28;20527;-73
2021/01/23 09:17:01;;;;;;;18.80;4.03;;;11.60;99.90;;;;;;5087292;28;20016;-74
2021/01/23 09:19:27;;;;;;;20.30;4.75;;;11.70;99.90;;;;;;5088900;28;20100;-74
2021/01/23 09:21:53;;;;;;;23.15;5.72;;;11.70;99.90;;;;;;5090969;28;20024;-74
2021/01/23 09:24:18;;;;;;;25.77;4.53;;;11.70;99.90;;;;;;5092538;28;20032;-74
2021/01/23 09:26:44;;;;;;;17.23;4.00;;;11.60;99.90;;;;;;5094879;28;20032;-73
2021/01/23 09:29:11;;;;;;;13.73;2.60;;;11.60;99.90;;;;;;5090173;28;20081;-74
2021/01/23 09:31:38;;;;;;;14.88;3.97;;;11.40;99.90;;;;;;5080577;28;20012;-73
2021/01/23 09:34:04;;;;;;;21.40;3.65;;;11.40;99.90;;;;;;5092886;28;20054;-73
2021/01/23 09:36:30;;;;;;;18.73;3.53;;;11.30;99.90;;;;;;5094138;28;20476;-74
2021/01/23 09:38:55;;;;;;;18.05;3.38;;;11.30;99.90;;;;;;5093635;28;20425;-74
2021/01/23 09:41:21;;;;;;;17.75;3.72;;;11.30;99.90;;;;;;5093464;28;20024;-74
2021/01/23 09:43:47;;;;;;;14.07;3.30;;;11.20;99.90;;;;;;5093418;28;20040;-74
2021/01/23 09:46:13;;;;;;;20.33;3.30;;;11.20;99.90;;;;;;5089800;28;20099;-74
2021/01/23 09:48:38;;;;;;;23.85;10.60;;;11.30;99.90;;;;;;5093632;28;20035;-75
2021/01/23 09:51:04;;;;;;;14.77;5.10;;;11.30;99.90;;;;;;5094832;28;20425;-74
2021/01/23 09:53:30;;;;;;;16.17;4.40;;;11.30;99.90;;;;;;5094739;28;20117;-74
2021/01/23 09:55:56;;;;;;;31.35;11.13;;;11.40;99.90;;;;;;5094763;28;20024;-75
2021/01/23 09:58:21;;;;;;;23.13;6.80;;;11.40;99.90;;;;;;5094358;28;20081;-75
2021/01/23 10:00:47;;;;;;;25.05;8.15;;;11.40;99.90;;;;;;5094724;28;20031;-74
2021/01/23 10:03:14;;;;;;;20.75;7.43;;;11.40;99.90;;;;;;5092731;28;20052;-74
2021/01/23 10:05:40;;;;;;;33.30;7.28;;;11.50;99.90;;;;;;5090323;28;20499;-75
2021/01/23 10:08:06;;;;;;;28.67;10.18;;;11.50;99.90;;;;;;5093165;28;20032;-74
2021/01/23 10:10:32;;;;;;;19.20;5.07;;;11.50;99.90;;;;;;5094007;28;20012;-75
2021/01/23 10:12:58;;;;;;;18.95;5.93;;;11.60;99.90;;;;;;5094055;28;20027;-74
2021/01/23 10:15:24;;;;;;;20.58;6.18;;;11.60;99.90;;;;;;5094129;28;20028;-75
2021/01/23 10:17:50;;;;;;;25.13;11.48;;;11.60;99.90;;;;;;5083920;28;20678;-74
2021/01/23 10:20:16;;;;;;;18.20;6.80;;;11.60;99.90;;;;;;5084190;28;20063;-75
2021/01/23 10:22:42;;;;;;;21.50;4.10;;;11.60;99.90;;;;;;5089630;28;20471;-75
2021/01/23 10:25:08;;;;;;;19.35;7.03;;;11.60;99.90;;;;;;5092270;28;20146;-75
2021/01/23 10:27:34;;;;;;;21.70;4.75;;;11.60;99.90;;;;;;5093895;28;20043;-75
2021/01/23 10:30:01;;;;;;;20.92;5.70;;;11.60;99.90;;;;;;5077420;28;20040;-74
2021/01/23 10:32:27;;;;;;;67.95;42.20;;;11.60;99.90;;;;;;5085277;28;20032;-73
2021/01/23 10:34:52;;;;;;;26.13;11.40;;;11.60;99.90;;;;;;5090287;28;20036;-74
2021/01/23 10:37:18;;;;;;;24.70;9.55;;;11.60;99.90;;;;;;5089585;28;20030;-73
2021/01/23 10:39:44;;;;;;;29.58;5.22;;;11.60;99.90;;;;;;5091866;28;20035;-75
2021/01/23 10:42:10;;;;;;;25.70;5.40;;;11.60;99.90;;;;;;5093318;28;20480;-74
2021/01/23 10:44:39;;;;;;;29.15;6.07;;;11.60;99.90;;;;;;5092364;28;20028;-73
2021/01/23 10:47:11;;;;;;;25.52;5.20;;;11.60;99.90;;;;;;5081019;28;20469;-73
2021/01/23 10:49:37;;;;;;;25.85;5.05;;;11.50;99.90;;;;;;5076196;28;20059;-74
2021/01/23 10:52:03;;;;;;;32.20;5.93;;;11.60;99.90;;;;;;5072491;28;20048;-73
2021/01/23 10:54:28;;;;;;;29.92;5.75;;;11.60;99.90;;;;;;5074494;28;20036;-73
2021/01/23 10:56:54;;;;;;;36.08;6.47;;;11.70;99.90;;;;;;5087725;28;20024;-72
2021/01/23 10:59:20;;;;;;;31.73;5.88;;;11.90;99.90;;;;;;5094272;28;20028;-75
2021/01/23 11:01:47;;;;;;;31.50;5.55;;;12.20;99.90;;;;;;5093811;28;20032;-76
2021/01/23 11:04:13;;;;;;;37.00;6.68;;;12.50;99.90;;;;;;5093200;28;20084;-76
2021/01/23 11:06:39;;;;;;;28.15;5.75;;;12.90;99.90;;;;;;5091984;28;20020;-77
2021/01/23 11:09:05;;;;;;;28.45;5.70;;;13.40;99.90;;;;;;5091510;28;20383;-77
2021/01/23 11:11:32;;;;;;;35.88;6.40;;;14.10;99.90;;;;;;5092080;28;20039;-75
2021/01/23 11:13:58;;;;;;;25.27;4.22;;;14.10;99.90;;;;;;5090245;28;20484;-74
2021/01/23 11:16:23;;;;;;;21.83;5.50;;;14.00;99.90;;;;;;5092297;28;20032;-76
2021/01/23 11:18:49;;;;;;;24.52;4.75;;;13.90;99.90;;;;;;5087343;28;20035;-75
2021/01/23 11:21:15;;;;;;;20.08;4.05;;;13.70;99.90;;;;;;5086125;28;20029;-76
2021/01/23 11:23:41;;;;;;;21.50;3.83;;;13.40;99.90;;;;;;5092468;28;20024;-75
2021/01/23 11:26:06;;;;;;;24.33;3.60;;;13.20;99.90;;;;;;5092432;28;20105;-76
2021/01/23 11:28:32;;;;;;;18.95;3.42;;;13.00;99.90;;;;;;5092855;28;20024;-79
2021/01/23 11:30:58;;;;;;;21.00;3.35;;;12.90;99.90;;;;;;5092087;28;20031;-75
2021/01/23 11:33:23;;;;;;;25.05;4.13;;;12.80;99.90;;;;;;5092917;28;20031;-73
2021/01/23 11:35:49;;;;;;;17.27;3.63;;;12.70;99.90;;;;;;5092350;28;20545;-75
2021/01/23 11:38:15;;;;;;;16.00;3.30;;;12.60;99.90;;;;;;5091483;28;20028;-74
2021/01/23 11:40:42;;;;;;;18.42;4.22;;;12.60;99.90;;;;;;5090925;28;20075;-76
2021/01/23 11:43:11;;;;;;;19.42;4.13;;;12.60;99.90;;;;;;5092058;28;20745;-73
2021/01/23 11:45:37;;;;;;;25.10;5.40;;;12.50;99.90;;;;;;5092460;28;20020;-73
2021/01/23 11:48:03;;;;;;;21.05;3.60;;;12.50;99.90;;;;;;5091775;28;20434;-72
2021/01/23 11:50:28;;;;;;;24.90;4.25;;;12.50;99.90;;;;;;5091991;28;20086;-73
2021/01/23 11:52:54;;;;;;;17.08;3.58;;;12.50;99.90;;;;;;5091236;28;20372;-73
2021/01/23 11:55:20;;;;;;;12.73;3.17;;;12.30;99.90;;;;;;5092766;28;20050;-71
2021/01/23 11:57:45;;;;;;;18.23;3.78;;;12.30;99.90;;;;;;5091554;28;20035;-74
2021/01/23 12:00:12;;;;;;;13.13;2.70;;;12.30;99.90;;;;;;5073664;28;20035;-72
2021/01/23 12:02:37;;;;;;;10.73;2.67;;;12.10;99.90;;;;;;5091811;28;20067;-74
2021/01/23 12:05:04;;;;;;;10.88;2.38;;;12.00;99.90;;;;;;5090353;28;20035;-72
2021/01/23 12:07:30;;;;;;;14.55;3.63;;;11.90;99.90;;;;;;5085908;28;20032;-72
2021/01/23 12:09:56;;;;;;;13.57;3.72;;;11.80;99.90;;;;;;5082273;28;20023;-73
2021/01/23 12:12:21;;;;;;;19.70;4.65;;;11.70;99.90;;;;;;5084949;28;20035;-72
2021/01/23 12:14:47;;;;;;;26.98;4.05;;;11.70;99.90;;;;;;5090897;28;20032;-72
2021/01/23 12:17:13;;;;;;;20.45;4.65;;;11.70;99.90;;;;;;5082090;28;20103;-74
2021/01/23 12:19:41;;;;;;;15.50;4.13;;;11.60;99.90;;;;;;5090535;28;20035;-73
2021/01/23 12:22:07;;;;;;;16.38;3.88;;;11.60;99.90;;;;;;5090966;28;20023;-74
2021/01/23 12:24:33;;;;;;;26.75;4.88;;;11.60;99.90;;;;;;5091011;28;20024;-72
2021/01/23 12:27:00;;;;;;;13.77;3.85;;;11.60;99.90;;;;;;5088583;28;20020;-72
2021/01/23 12:29:26;;;;;;;25.58;5.53;;;11.60;99.90;;;;;;5090996;28;20016;-73
2021/01/23 12:31:52;;;;;;;14.38;3.40;;;11.60;99.90;;;;;;5089716;28;20036;-72
2021/01/23 12:34:18;;;;;;;14.50;2.67;;;11.60;99.90;;;;;;5089269;28;20052;-76
2021/01/23 12:36:43;;;;;;;14.45;2.80;;;11.70;99.90;;;;;;5089796;28;20055;-72
2021/01/23 12:39:09;;;;;;;16.02;4.68;;;11.70;99.90;;;;;;5089830;28;20248;-72
2021/01/23 12:41:35;;;;;;;20.83;4.85;;;11.70;99.90;;;;;;5085835;28;20012;-72